Flight Track Log - Related Links

Times and Time Zones

All times are in EDT time to prevent confusion due to time zone crossing. See the EJA396 flight status page for this flight to view local times or setup timezone preferences in your user account.

Time Position Orientation Groundspeed Altitude Reporting Facility
EDT Latitude Longitude Course Direction KTS MPH feet Rate Location/Type
Sun 06:25:39 PM 47.5461 -122.3181 325° Northwest 169 194 1,200  Level Seattle Center
Sun 06:26:22 PM 47.5792 -122.3522 325° Northwest 218 251 3,200 3,553 Climbing Seattle Center
Sun 06:27:22 PM 47.6214 -122.4408 305° West 274 315 7,300 3,904 Climbing Seattle Center
Sun 06:27:45 PM 47.6175 -122.4839 262° West 273 314 8,600 3,071 Climbing Seattle Center
Sun 06:28:46 PM 47.5492 -122.5367 208° Southwest 303 349 11,600 3,098 Climbing Seattle Center
Sun 06:29:47 PM 47.4703 -122.4978 162° South 303 349 14,900 2,705 Climbing Seattle Center
Sun 06:30:48 PM 47.3772 -122.4408 157° South 343 395 17,100 1,967 Climbing Seattle Center
Sun 06:31:49 PM 47.2983 -122.3944 158° South 361 415 18,900 1,869 Climbing Seattle Center
Sun 06:32:50 PM 47.1986 -122.3350 158° South 387 445 20,900 2,115 Climbing Seattle Center
Sun 06:33:51 PM 47.0750 -122.2606 158° South 404 465 23,200 2,115 Climbing Seattle Center
Sun 06:34:52 PM 46.9694 -122.1978 158° South 412 474 25,200 1,967 Climbing Seattle Center
Sun 06:35:53 PM 46.8639 -122.1342 158° South 414 476 27,200 1,869 Climbing Seattle Center
Sun 06:36:54 PM 46.7561 -122.0722 159° South 420 483 29,000 1,623 Climbing Seattle Center
Sun 06:37:55 PM 46.6478 -122.0064 157° South 425 489 30,500 1,475 Climbing Seattle Center
Sun 06:38:56 PM 46.5342 -121.9558 163° South 431 496 32,000 1,475 Climbing Seattle Center
Sun 06:39:57 PM 46.4178 -121.9131 166° South 435 501 33,500 1,388 Climbing Seattle Center
Sun 06:40:57 PM 46.3031 -121.8683 165° South 432 497 34,800 1,240 Climbing Seattle Center
Sun 06:41:58 PM 46.1681 -121.8167 165° South 434 499 36,000 1,082 Climbing Seattle Center
Sun 06:42:59 PM 46.0494 -121.7722 165° South 440 506 37,000 984 Climbing Seattle Center
Sun 06:44:00 PM 45.9322 -121.7272 165° South 438 504 38,000 984 Climbing Seattle Center
Sun 06:46:02 PM 45.7017 -121.6400 165° South 430 495 40,000 852 Climbing Seattle Center
Sun 06:47:03 PM 45.5892 -121.5969 165° South 423 487 40,600 492 Climbing Seattle Center
Sun 06:48:04 PM 45.4764 -121.5556 166° South 423 487 41,000 197 Climbing Seattle Center
Sun 06:49:05 PM 45.3625 -121.5139 166° South 425 489 41,000  Level Seattle Center
Sun 06:50:06 PM 45.2469 -121.4711 165° South 430 495 41,000  Level Seattle Center
Sun 06:51:07 PM 45.1097 -121.4211 166° South 428 493 41,000  Level Seattle Center
Sun 06:52:08 PM 44.9958 -121.3778 165° South 427 491 41,000  Level Seattle Center
Sun 06:53:09 PM 44.8822 -121.3378 166° South 425 489 41,000  Level Seattle Center
Sun 06:54:09 PM 44.7706 -121.2961 165° South 420 483 41,000  Level Seattle Center
Sun 06:55:10 PM 44.6581 -121.2572 166° South 419 482 41,000  Level Seattle Center
Sun 06:56:11 PM 44.5322 -121.2117 166° South 421 484 41,000  Level Seattle Center
Sun 06:57:12 PM 44.4186 -121.1711 166° South 421 484 41,000  Level Seattle Center
Sun 06:58:13 PM 44.3189 -121.1356 166° South 421 484 41,000  Level Seattle Center
Sun 06:59:14 PM 44.2056 -121.0931 165° South 423 487 41,000  Level Seattle Center
Sun 07:00:15 PM 44.0892 -121.0658 170° South 426 490 41,000  Level Seattle Center
Sun 07:01:16 PM 43.9744 -121.0400 171° South 421 484 41,000  Level Seattle Center
Sun 07:02:16 PM 43.8344 -121.0089 171° South 423 487 41,000  Level Seattle Center
Sun 07:03:17 PM 43.7164 -120.9828 171° South 429 494 41,000  Level Seattle Center
Sun 07:04:18 PM 43.5983 -120.9575 171° South 429 494 41,000  Level Seattle Center
Sun 07:05:19 PM 43.4953 -120.9383 172° South 436 502 41,000  Level Seattle Center
Sun 07:06:20 PM 43.3769 -120.9158 172° South 439 505 41,000  Level Seattle Center
Sun 07:07:21 PM 43.2358 -120.8858 171° South 432 497 41,000  Level Seattle Center
Sun 07:08:22 PM 43.1175 -120.8608 171° South 431 496 41,000  Level Seattle Center
Sun 07:09:23 PM 42.9969 -120.8311 170° South 438 504 41,000  Level Seattle Center
Sun 07:10:24 PM 42.8772 -120.8067 171° South 437 503 41,000  Level Seattle Center
Sun 07:11:25 PM 42.7600 -120.7814 171° South 427 491 41,000  Level Seattle Center
Sun 07:12:26 PM 42.6425 -120.7564 171° South 429 494 41,000  Level Seattle Center
Sun 07:13:27 PM 42.5244 -120.7306 171° South 430 495 41,000  Level Seattle Center
Sun 07:14:28 PM 42.4067 -120.7067 171° South 429 494 41,000  Level Seattle Center
Sun 07:15:28 PM 42.2889 -120.6819 171° South 428 493 41,000  Level Seattle Center
Sun 07:17:30 PM 42.0531 -120.6319 171° South 429 494 41,000  Level Seattle Center
Sun 07:18:31 PM 41.9344 -120.6078 171° South 431 496 41,000  Level Seattle Center
Sun 07:19:32 PM 41.8158 -120.5817 171° South 430 495 41,000  Level Seattle Center
Sun 07:20:33 PM 41.6975 -120.5572 171° South 428 493 41,000  Level Seattle Center
Sun 07:21:34 PM 41.5808 -120.5317 171° South 424 488 41,000  Level Seattle Center
Sun 07:22:35 PM 41.4614 -120.5072 171° South 431 496 41,000  Level Seattle Center
Sun 07:23:36 PM 41.3431 -120.4792 170° South 431 496 41,000  Level Seattle Center
Sun 07:24:37 PM 41.2269 -120.4425 167° South 429 494 41,000  Level Seattle Center
Sun 07:25:37 PM 41.1119 -120.4075 167° South 425 489 41,000  Level Seattle Center
Sun 07:26:38 PM 40.9719 -120.3653 167° South 428 493 41,000  Level Seattle Center
Sun 07:27:39 PM 40.8553 -120.3300 167° South 428 493 41,000  Level Seattle Center
Sun 07:28:40 PM 40.7392 -120.2942 167° South 428 493 41,000  Level Seattle Center
Sun 07:29:41 PM 40.6222 -120.2594 167° South 429 494 41,000  Level Seattle Center
Sun 07:30:05 PM 40.5767 -120.2458 167° South 427 491 41,000  Level Oakland Center
Sun 07:31:06 PM 40.4556 -120.2111 168° South 430 495 41,000  Level Oakland Center
Sun 07:32:07 PM 40.3400 -120.1769 167° South 426 490 41,000  Level Oakland Center
Sun 07:33:08 PM 40.2261 -120.1422 167° South 422 486 41,000  Level Oakland Center
Sun 07:34:10 PM 40.1100 -120.1083 167° South 426 490 41,000  Level Oakland Center
Sun 07:35:11 PM 39.9967 -120.0742 167° South 421 484 41,000  Level Oakland Center
Sun 07:36:12 PM 39.8806 -120.0403 167° South 425 489 41,000  Level Oakland Center
Sun 07:37:13 PM 39.7656 -120.0072 168° South 425 489 41,000  Level Oakland Center
Sun 07:38:15 PM 39.6517 -119.9736 167° South 422 486 41,000  Level Oakland Center
Sun 07:39:16 PM 39.5136 -119.9333 167° South 423 487 41,000  Level Oakland Center
Sun 07:40:17 PM 39.3983 -119.9000 167° South 425 489 41,000  Level Oakland Center
Sun 07:41:18 PM 39.2836 -119.8669 167° South 424 488 41,000  Level Oakland Center
Sun 07:42:19 PM 39.1703 -119.8344 167° South 422 486 41,000  Level Oakland Center
Sun 07:43:21 PM 39.0567 -119.8022 168° South 420 483 41,000  Level Oakland Center
Sun 07:44:22 PM 38.9439 -119.7692 167° South 417 480 41,000  Level Oakland Center
Sun 07:45:23 PM 38.8306 -119.7378 168° South 417 480 41,000  Level Oakland Center
Sun 07:46:24 PM 38.7172 -119.7053 167° South 418 481 41,000  Level Oakland Center
Sun 07:47:25 PM 38.6028 -119.6739 168° South 422 486 41,000  Level Oakland Center
Sun 07:48:26 PM 38.4653 -119.6342 167° South 424 488 41,000  Level Oakland Center
Sun 07:49:28 PM 38.3578 -119.6031 167° South 428 493 41,000  Level Oakland Center
Sun 07:51:05 PM 38.1767 -119.5514 167° South 429 494 41,000  Level Los Angeles Center
Sun 07:51:31 PM 38.1261 -119.5375 168° South 425 489 41,000  Level Oakland Center
Sun 07:52:31 PM 38.0103 -119.5064 168° South 424 488 41,000  Level Oakland Center
Sun 07:53:32 PM 37.8953 -119.4739 167° South 423 487 41,000  Level Oakland Center
Sun 07:54:33 PM 37.7781 -119.4439 169° South 426 490 41,000  Level Oakland Center
Sun 07:55:34 PM 37.6628 -119.4111 167° South 423 487 41,000  Level Oakland Center
Sun 07:56:36 PM 37.5361 -119.3781 168° South 421 484 41,000  Level Oakland Center
Sun 07:57:37 PM 37.4219 -119.3481 168° South 420 483 41,000  Level Oakland Center
Sun 07:58:40 PM 37.3075 -119.3153 167° South 422 486 41,000  Level Oakland Center
Sun 07:59:39 PM 37.1936 -119.2844 168° South 418 481 41,000  Level Oakland Center
Sun 08:00:40 PM 37.0781 -119.2522 167° South 424 488 41,000  Level Oakland Center
Sun 08:01:41 PM 36.9631 -119.2211 168° South 423 487 41,000  Level Oakland Center
Sun 08:02:44 PM 36.8264 -119.1833 168° South 418 481 41,000  Level Oakland Center
Sun 08:03:43 PM 36.7108 -119.1519 168° South 424 488 41,000  Level Oakland Center
Sun 08:04:44 PM 36.5961 -119.1211 168° South 422 486 41,000  Level Oakland Center
Sun 08:05:46 PM 36.4803 -119.0886 167° South 425 489 41,000  Level Oakland Center
Sun 08:06:47 PM 36.3664 -119.0592 168° South 420 483 41,000  Level Oakland Center
Sun 08:07:48 PM 36.2506 -119.0294 168° South 422 486 41,000  Level Oakland Center
Sun 08:09:42 PM 36.0508 -118.9439 161° South 421 484 41,000  Level Los Angeles Center
Sun 08:10:44 PM 35.9206 -118.8656 154° Southeast 433 498 41,000  Level Los Angeles Center
Sun 08:11:46 PM 35.8125 -118.8031 155° Southeast 428 493 41,000  Level Los Angeles Center
Sun 08:12:53 PM 35.7075 -118.7394 154° Southeast 427 491 41,000  Level Oakland Center
Sun 08:13:54 PM 35.5978 -118.6756 155° Southeast 430 495 41,000  Level Oakland Center
Sun 08:14:52 PM 35.4875 -118.6103 154° Southeast 431 496 41,000  Level Los Angeles Center
Sun 08:15:54 PM 35.3783 -118.5464 154° Southeast 433 498 41,000  Level Los Angeles Center
Sun 08:17:08 PM 35.2553 -118.4758 155° Southeast 429 494 41,000  Level Los Angeles Center
Sun 08:18:11 PM 35.1264 -118.4008 155° Southeast 429 494 41,000  Level Los Angeles Center
Sun 08:19:13 PM 35.0169 -118.3383 155° Southeast 434 499 41,000  Level Los Angeles Center
Sun 08:20:15 PM 34.9078 -118.2742 154° Southeast 437 503 41,000  Level Los Angeles Center
Sun 08:21:17 PM 34.7764 -118.2003 155° Southeast 439 505 41,000  Level Los Angeles Center
Sun 08:22:19 PM 34.6664 -118.1369 155° Southeast 439 505 41,000  Level Los Angeles Center
Sun 08:23:33 PM 34.5561 -118.0744 155° Southeast 441 507 41,000  Level Los Angeles Center
Sun 08:24:35 PM 34.4461 -118.0119 155° Southeast 439 505 41,000  Level Los Angeles Center
Sun 08:25:38 PM 34.3050 -117.9308 155° Southeast 437 503 41,000  Level Los Angeles Center
Sun 08:26:40 PM 34.1950 -117.8694 155° Southeast 435 501 41,000  Level Los Angeles Center
Sun 08:27:42 PM 34.0850 -117.8056 154° Southeast 436 502 41,000  Level Los Angeles Center
Sun 08:28:44 PM 33.9744 -117.7431 155° Southeast 436 502 41,000  Level Los Angeles Center
Sun 08:29:46 PM 33.8408 -117.6697 155° Southeast 437 503 41,000  Level Los Angeles Center
Sun 08:30:48 PM 33.7306 -117.6069 155° Southeast 436 502 41,000  Level Los Angeles Center
Sun 08:31:50 PM 33.6192 -117.5453 155° Southeast 438 504 41,000  Level Los Angeles Center
Sun 08:32:52 PM 33.5089 -117.4842 155° Southeast 436 502 41,000  Level Los Angeles Center
Sun 08:33:53 PM 33.4194 -117.4364 156° South 436 502 41,000  Level Los Angeles Center
Sun 08:34:56 PM 33.2867 -117.3633 155° Southeast 435 501 41,000  Level Los Angeles Center
Sun 08:35:58 PM 33.1761 -117.3022 155° Southeast 436 502 41,000  Level Los Angeles Center
Sun 08:37:13 PM 33.0208 -117.2153 155° Southeast 439 505 41,000  Level Los Angeles Center
Sun 08:38:14 PM 32.9133 -117.1569 156° South 436 502 41,000  Level Los Angeles Center
Sun 08:39:16 PM 32.8019 -117.0969 156° South 439 505 41,000  Level Los Angeles Center
Sun 08:40:18 PM 32.6942 -117.0361 155° Southeast 434 499 41,000  Level Los Angeles Center
Sun 08:41:20 PM 32.5622 -116.9650 156° South 435 501 41,000  Level Los Angeles Center
Sun 08:42:22 PM 32.4622 -116.8792 144° Southeast 441 507 41,000  Level Los Angeles Center
Sun 08:44:00 PM 32.3161 -116.7379 141° Southeast  Level FlightAware Approximate
Sun 08:51:00 PM 31.6878 -116.1376 141° Southeast  Level FlightAware Approximate
Sun 08:52:00 PM 31.5959 -116.0554 143° Southeast  Level FlightAware Approximate
Sun 08:53:00 PM 31.5039 -115.9735 143° Southeast  Level FlightAware Approximate
Sun 08:54:00 PM 31.4117 -115.8918 143° Southeast  Level FlightAware Approximate
Sun 08:55:00 PM 31.3198 -115.8100 143° Southeast  Level FlightAware Approximate
Sun 08:56:00 PM 31.2278 -115.7281 143° Southeast  Level FlightAware Approximate
Sun 08:57:00 PM 31.1358 -115.6465 143° Southeast  Level FlightAware Approximate
Sun 08:58:00 PM 31.0438 -115.5649 143° Southeast  Level FlightAware Approximate
Sun 08:59:00 PM 30.9517 -115.4836 143° Southeast  Level FlightAware Approximate
Sun 09:00:00 PM 30.8596 -115.4024 143° Southeast  Level FlightAware Approximate
Sun 09:01:00 PM 30.7682 -115.3202 141° Southeast  Level FlightAware Approximate
Sun 09:02:00 PM 30.6781 -115.2360 141° Southeast  Level FlightAware Approximate
Sun 09:03:00 PM 30.5880 -115.1520 141° Southeast  Level FlightAware Approximate
Sun 09:04:00 PM 30.4979 -115.0682 141° Southeast  Level FlightAware Approximate
Sun 09:05:00 PM 30.4076 -114.9845 141° Southeast  Level FlightAware Approximate
Sun 09:06:00 PM 30.3174 -114.9009 141° Southeast  Level FlightAware Approximate
Sun 09:07:00 PM 30.2271 -114.8175 141° Southeast  Level FlightAware Approximate
Sun 09:08:00 PM 30.1367 -114.7343 141° Southeast  Level FlightAware Approximate
Sun 09:09:00 PM 30.0463 -114.6512 141° Southeast  Level FlightAware Approximate
Sun 09:10:00 PM 29.9558 -114.5683 142° Southeast  Level FlightAware Approximate
Sun 09:11:00 PM 29.8653 -114.4855 142° Southeast  Level FlightAware Approximate
Sun 09:12:00 PM 29.7747 -114.4028 142° Southeast  Level FlightAware Approximate
Sun 09:13:00 PM 29.6836 -114.3210 143° Southeast  Level FlightAware Approximate
Sun 09:14:00 PM 29.5918 -114.2404 143° Southeast  Level FlightAware Approximate
Sun 09:15:00 PM 29.4999 -114.1600 143° Southeast  Level FlightAware Approximate
Sun 09:16:00 PM 29.4079 -114.0797 143° Southeast  Level FlightAware Approximate
Sun 09:17:00 PM 29.3159 -113.9995 143° Southeast  Level FlightAware Approximate
Sun 09:18:00 PM 29.2239 -113.9195 143° Southeast  Level FlightAware Approximate
Sun 09:19:00 PM 29.1318 -113.8397 143° Southeast  Level FlightAware Approximate
Sun 09:20:00 PM 29.0398 -113.7598 143° Southeast  Level FlightAware Approximate
Sun 09:21:00 PM 28.9481 -113.6795 143° Southeast  Level FlightAware Approximate
Sun 09:22:00 PM 28.8563 -113.5993 143° Southeast  Level FlightAware Approximate
Sun 09:23:00 PM 28.7645 -113.5193 143° Southeast  Level FlightAware Approximate
Sun 09:24:00 PM 28.6726 -113.4394 143° Southeast  Level FlightAware Approximate
Sun 09:25:00 PM 28.5807 -113.3597 143° Southeast  Level FlightAware Approximate
Sun 09:26:00 PM 28.4888 -113.2801 143° Southeast  Level FlightAware Approximate
Sun 09:27:00 PM 28.3968 -113.2006 143° Southeast  Level FlightAware Approximate
Sun 09:28:00 PM 28.3048 -113.1213 143° Southeast  Level FlightAware Approximate
Sun 09:29:00 PM 28.2127 -113.0421 143° Southeast  Level FlightAware Approximate
Sun 09:30:00 PM 28.1206 -112.9631 143° Southeast  Level FlightAware Approximate
Sun 09:31:00 PM 28.0284 -112.8842 143° Southeast  Level FlightAware Approximate
Sun 09:32:00 PM 27.9361 -112.8054 143° Southeast  Level FlightAware Approximate
Sun 09:33:00 PM 27.8439 -112.7268 143° Southeast  Level FlightAware Approximate
Sun 09:34:00 PM 27.7516 -112.6483 143° Southeast  Level FlightAware Approximate
Sun 09:35:00 PM 27.6592 -112.5699 143° Southeast  Level FlightAware Approximate
Sun 09:36:00 PM 27.5668 -112.4917 143° Southeast  Level FlightAware Approximate
Sun 09:37:00 PM 27.4744 -112.4136 143° Southeast  Level FlightAware Approximate
Sun 09:38:00 PM 27.3819 -112.3356 143° Southeast  Level FlightAware Approximate
Sun 09:39:00 PM 27.2886 -112.2590 149° Southeast  Level FlightAware Approximate
Sun 09:40:00 PM 27.1892 -112.1928 149° Southeast  Level FlightAware Approximate
Sun 09:41:00 PM 27.0910 -112.1246 148° Southeast  Level FlightAware Approximate
Sun 09:42:00 PM 26.9934 -112.0552 148° Southeast  Level FlightAware Approximate
Sun 09:43:00 PM 26.8958 -111.9859 148° Southeast  Level FlightAware Approximate
Sun 09:44:00 PM 26.7981 -111.9167 148° Southeast  Level FlightAware Approximate
Sun 09:45:00 PM 26.7005 -111.8476 148° Southeast  Level FlightAware Approximate
Sun 09:46:00 PM 26.6027 -111.7787 148° Southeast  Level FlightAware Approximate
Sun 09:47:00 PM 26.5050 -111.7099 148° Southeast  Level FlightAware Approximate
Sun 09:48:00 PM 26.4072 -111.6412 148° Southeast  Level FlightAware Approximate
Sun 09:49:00 PM 26.3094 -111.5726 148° Southeast  Level FlightAware Approximate
Sun 09:50:00 PM 26.2116 -111.5041 148° Southeast  Level FlightAware Approximate
Sun 09:51:00 PM 26.1137 -111.4358 148° Southeast  Level FlightAware Approximate
Sun 09:52:00 PM 26.0158 -111.3675 148° Southeast  Level FlightAware Approximate
Sun 09:53:00 PM 25.9299 -111.2841 130° Southeast  Level FlightAware Approximate
Sun 09:54:00 PM 25.8560 -111.1854 130° Southeast  Level FlightAware Approximate
Sun 09:55:00 PM 25.7821 -111.0868 130° Southeast  Level FlightAware Approximate
Sun 09:56:00 PM 25.7080 -110.9883 130° Southeast  Level FlightAware Approximate
Sun 09:57:00 PM 25.6341 -110.8898 130° Southeast  Level FlightAware Approximate
Sun 09:58:00 PM 25.5604 -110.7912 130° Southeast  Level FlightAware Approximate
Sun 09:59:00 PM 25.4866 -110.6928 130° Southeast  Level FlightAware Approximate
Sun 10:00:00 PM 25.4127 -110.5945 130° Southeast  Level FlightAware Approximate
Sun 10:01:00 PM 25.3439 -110.4923 131° Southeast  Level FlightAware Approximate
Sun 10:02:00 PM 25.2674 -110.3966 131° Southeast  Level FlightAware Approximate
Sun 10:03:00 PM 25.1912 -110.3006 131° Southeast  Level FlightAware Approximate
Sun 10:04:00 PM 25.1159 -110.2038 131° Southeast  Level FlightAware Approximate
Sun 10:05:00 PM 25.0498 -110.1038 131° Southeast  Level FlightAware Approximate
Sun 10:06:00 PM 24.9733 -110.0082 131° Southeast  Level FlightAware Approximate
Sun 10:07:00 PM 24.8972 -109.9124 126° Southeast  Level FlightAware Approximate
Sun 10:08:00 PM 24.8244 -109.8138 131° Southeast  Level FlightAware Approximate
Sun 10:09:00 PM 24.7217 -109.7746 174° South  Level FlightAware Approximate
Sun 10:10:00 PM 24.6066 -109.7667 180° South  Level FlightAware Approximate
Sun 10:11:00 PM 24.4911 -109.7667 180° South  Level FlightAware Approximate
Sun 10:12:00 PM 24.3755 -109.7667 180° South  Level FlightAware Approximate
Sun 10:13:00 PM 24.2605 -109.7549 174° South  Level FlightAware Approximate
Sun 10:14:00 PM 24.1453 -109.7500 180° South  Level FlightAware Approximate
Sun 10:15:00 PM 24.0298 -109.7500 180° South  Level FlightAware Approximate
Sun 10:16:00 PM 23.9143 -109.7481 175° South  Level FlightAware Approximate
Sun 10:17:00 PM 23.7993 -109.7366 175° South  Level FlightAware Approximate
Sun 10:18:00 PM 23.6839 -109.7333 180° South  Level FlightAware Approximate
Sun 10:19:00 PM 23.5684 -109.7333 180° South  Level FlightAware Approximate
Sun 10:20:00 PM 23.4533 -109.7237 175° South  Level FlightAware Approximate
Sun 10:21:00 PM 23.3381 -109.7167 180° South  Level FlightAware Approximate
Sun 10:22:00 PM 23.2225 -109.7167 180° South  Level FlightAware Approximate
Sun 10:23:00 PM 23.1518 -109.7210 180° South  Level Estimated
Sun 10:24:00 PM 23.1518 -109.7210 180° South  Level Estimated
Sun 10:25:00 PM 23.1518 -109.7210 180° South  Level Estimated
Sun 10:26:00 PM 23.1518 -109.7210 180° South  Level Estimated
Sun 10:27:00 PM 23.1518 -109.7210 180° South  Level Estimated
Sun 10:28:00 PM 23.1518 -109.7210 180° South  Level Estimated
Sun 10:29:00 PM 23.1518 -109.7210 180° South  Level Estimated
Sun 10:30:00 PM 23.1518 -109.7210 180° South  Level Estimated
Sun 10:31:00 PM 23.1518 -109.7210 180° South  Level Estimated
Sun 10:32:00 PM 23.1518 -109.7210 180° South  Level Estimated
Sun 10:33:00 PM 23.1518 -109.7210 180° South  Level Estimated
Sun 10:34:00 PM 23.1518 -109.7210 180° South  Level Estimated
Sun 10:35:00 PM 23.1518 -109.7210 180° South  Level Estimated
Sun 10:36:00 PM 23.1518 -109.7210 180° South  Level Estimated
Sun 10:37:00 PM 23.1518 -109.7210 180° South  Level Estimated

Login

Don't have an account? Register now (free) for customized features, flight alerts, and more!